Time;durP1;ratioP1;P1;durP2;ratioP2;P2;SDS_P1;SDS_P2;PMS_P1;PMS_P2;Temp;Humidity;BMP_temperature;BMP_pressure;BME280_temperature;BME280_humidity;BME280_pressure;Samples;Min_cycle;Max_cycle;Signal;HPM_P1;HPM_P2
2022/09/19 00:01:22;;;;;;;3.60;0.30;;;11.50;99.90;;;;;;6184481;28;20058;-83
2022/09/19 00:04:25;;;;;;;1.38;0.25;;;11.30;99.90;;;;;;6185376;28;20054;-84
2022/09/19 00:07:27;;;;;;;1.55;0.30;;;11.20;99.90;;;;;;6184139;28;20085;-83
2022/09/19 00:10:28;;;;;;;3.97;0.20;;;11.10;99.90;;;;;;6186152;28;20409;-83
2022/09/19 00:13:31;;;;;;;0.88;0.10;;;11.00;99.90;;;;;;6189733;28;20527;-83
2022/09/19 00:16:38;;;;;;;1.05;0.30;;;10.90;99.90;;;;;;6179165;28;20051;-83
2022/09/19 00:19:40;;;;;;;0.80;0.03;;;10.80;99.90;;;;;;6183147;28;20066;-83
2022/09/19 00:24:45;;;;;;;0.17;0.10;;;10.70;99.90;;;;;;6183040;28;20062;-83
2022/09/19 00:26:05;;;;;;;0.32;0.10;;;10.60;99.90;;;;;;6181691;28;20528;-83
2022/09/19 00:29:09;;;;;;;0.20;0.10;;;10.60;99.90;;;;;;6182491;28;20076;-83
2022/09/19 00:32:14;;;;;;;2.42;0.22;;;10.50;99.90;;;;;;6182897;28;20073;-83
2022/09/19 00:35:15;;;;;;;1.15;0.20;;;10.40;99.90;;;;;;6178964;28;20046;-83
2022/09/19 00:38:17;;;;;;;0.50;0.13;;;10.30;99.90;;;;;;6177681;28;20057;-83
2022/09/19 00:41:21;;;;;;;3.13;0.45;;;10.20;99.90;;;;;;6177349;28;20402;-83
2022/09/19 00:44:55;;;;;;;1.75;0.20;;;10.20;99.90;;;;;;6177859;28;20051;-83
2022/09/19 00:48:00;;;;;;;6.25;0.38;;;10.10;99.90;;;;;;6201774;28;20524;-83
2022/09/19 00:51:04;;;;;;;0.93;0.10;;;9.90;99.90;;;;;;6181120;28;20077;-83
2022/09/19 00:54:09;;;;;;;2.08;0.40;;;9.90;99.90;;;;;;6188801;28;20520;-82
2022/09/19 00:57:13;;;;;;;1.85;0.25;;;9.90;99.90;;;;;;6176661;28;20074;-82
2022/09/19 01:00:15;;;;;;;0.55;0.30;;;9.90;99.90;;;;;;6192583;28;20073;-84
2022/09/19 01:03:18;;;;;;;0.30;0.30;;;9.90;99.90;;;;;;6182416;28;20489;-83
2022/09/19 01:06:40;;;;;;;5.50;1.42;;;9.80;99.90;;;;;;6179731;28;20051;-84
2022/09/19 01:09:50;;;;;;;0.88;0.32;;;9.80;99.90;;;;;;6177793;28;20516;-83
2022/09/19 01:13:00;;;;;;;0.63;0.20;;;9.80;99.90;;;;;;6179134;28;20062;-83
2022/09/19 01:16:05;;;;;;;0.70;0.22;;;9.70;99.90;;;;;;6173762;28;20045;-83
2022/09/19 01:19:30;;;;;;;2.28;0.38;;;9.60;99.90;;;;;;6222456;28;20400;-82
2022/09/19 01:22:41;;;;;;;0.85;0.32;;;9.60;99.90;;;;;;6184680;28;20046;-83
2022/09/19 01:25:52;;;;;;;2.60;0.40;;;9.50;99.90;;;;;;6202746;28;20048;-83
2022/09/19 01:29:00;;;;;;;0.35;0.15;;;9.50;99.90;;;;;;6205432;28;20050;-84
2022/09/19 01:32:08;;;;;;;1.73;0.43;;;9.50;99.90;;;;;;6204171;28;20049;-84
2022/09/19 01:35:15;;;;;;;1.17;0.28;;;9.50;99.90;;;;;;6205409;28;20050;-85
2022/09/19 01:38:22;;;;;;;0.80;0.50;;;9.50;99.90;;;;;;6203256;28;20054;-85
2022/09/19 01:41:24;;;;;;;1.38;0.55;;;9.50;99.90;;;;;;6203939;28;20046;-84
2022/09/19 01:44:29;;;;;;;1.73;0.52;;;9.50;99.90;;;;;;6203932;28;20146;-83
2022/09/19 01:47:39;;;;;;;3.90;0.40;;;9.40;99.90;;;;;;6203693;28;20104;-84
2022/09/19 01:51:16;;;;;;;0.95;0.40;;;9.50;99.90;;;;;;6204869;28;20140;-84
2022/09/19 01:54:32;;;;;;;0.20;0.13;;;9.50;99.90;;;;;;6203592;28;20078;-85
2022/09/19 01:57:44;;;;;;;0.20;0.15;;;9.50;99.90;;;;;;6202867;28;20189;-84
2022/09/19 02:00:53;;;;;;;2.58;0.32;;;9.50;99.90;;;;;;6203594;28;20042;-87
2022/09/19 02:04:01;;;;;;;2.17;0.28;;;9.50;99.90;;;;;;6203547;28;20121;-84
2022/09/19 02:07:10;;;;;;;1.60;0.20;;;9.40;99.90;;;;;;6208293;28;20603;-83
2022/09/19 02:10:18;;;;;;;0.40;0.30;;;9.40;99.90;;;;;;6195397;28;20051;-83
2022/09/19 02:13:24;;;;;;;2.28;0.75;;;9.40;99.90;;;;;;6183366;28;20053;-84
2022/09/19 02:16:33;;;;;;;2.40;0.52;;;9.40;99.90;;;;;;6204985;28;20106;-84
2022/09/19 02:19:40;;;;;;;3.85;1.30;;;9.30;99.90;;;;;;6206904;28;20413;-84
2022/09/19 02:22:48;;;;;;;4.90;0.50;;;9.30;99.90;;;;;;6207252;28;20507;-83
2022/09/19 02:25:51;;;;;;;1.92;0.55;;;9.20;99.90;;;;;;6205223;28;20136;-83
2022/09/19 02:28:56;;;;;;;3.45;0.60;;;9.10;99.90;;;;;;6199854;28;20054;-83
2022/09/19 02:32:00;;;;;;;2.58;0.40;;;9.10;99.90;;;;;;6200567;28;20054;-83
2022/09/19 02:35:04;;;;;;;1.23;0.47;;;9.00;99.90;;;;;;6200078;28;20494;-83
2022/09/19 02:38:14;;;;;;;3.00;0.50;;;9.10;99.90;;;;;;6199143;28;20046;-83
2022/09/19 02:41:26;;;;;;;1.00;0.70;;;9.10;99.90;;;;;;6198393;28;20157;-84
2022/09/19 02:44:36;;;;;;;4.50;0.82;;;9.20;99.90;;;;;;6181505;28;20047;-83
2022/09/19 02:47:47;;;;;;;2.45;0.45;;;9.20;99.90;;;;;;6174854;28;20066;-83
2022/09/19 02:50:58;;;;;;;4.55;0.63;;;9.30;99.90;;;;;;6193500;28;20532;-84
2022/09/19 02:54:04;;;;;;;1.38;0.77;;;9.20;99.90;;;;;;6173074;28;20058;-84
2022/09/19 02:57:10;;;;;;;1.38;1.08;;;9.20;99.90;;;;;;6187050;28;20050;-84
2022/09/19 03:00:14;;;;;;;2.40;0.98;;;9.20;99.90;;;;;;6179977;28;20421;-84
2022/09/19 03:06:48;;;;;;;6.13;0.80;;;9.20;99.90;;;;;;6175030;28;20046;-84
2022/09/19 03:09:55;;;;;;;4.82;0.75;;;9.20;99.90;;;;;;6173662;28;20053;-83
2022/09/19 03:13:01;;;;;;;1.35;0.77;;;9.20;99.90;;;;;;6174680;28;20047;-83
2022/09/19 03:16:07;;;;;;;3.83;0.70;;;9.20;99.90;;;;;;6194354;28;20078;-84
2022/09/19 03:19:10;;;;;;;1.83;0.77;;;9.30;99.90;;;;;;6199299;28;20042;-84
2022/09/19 03:22:12;;;;;;;6.35;1.05;;;9.20;99.90;;;;;;6181936;28;20505;-83
2022/09/19 03:25:14;;;;;;;2.13;0.82;;;9.20;99.90;;;;;;6199643;28;20050;-83
2022/09/19 03:28:19;;;;;;;4.32;0.88;;;9.20;99.90;;;;;;6173771;28;20058;-82
2022/09/19 03:31:21;;;;;;;1.98;0.80;;;9.20;99.90;;;;;;6190869;28;20053;-83
2022/09/19 03:34:24;;;;;;;1.33;0.82;;;9.20;99.90;;;;;;6198564;28;20054;-84
2022/09/19 03:37:26;;;;;;;2.05;0.77;;;9.10;99.90;;;;;;6200902;28;20046;-82
2022/09/19 03:40:27;;;;;;;1.98;0.93;;;9.10;99.90;;;;;;6205723;28;20054;-83
2022/09/19 03:43:29;;;;;;;2.67;0.77;;;9.10;99.90;;;;;;6204140;28;20061;-82
2022/09/19 03:46:31;;;;;;;1.17;0.90;;;9.10;99.90;;;;;;6202074;28;20046;-83
2022/09/19 03:49:34;;;;;;;10.30;1.00;;;9.20;99.90;;;;;;6201131;28;20042;-84
2022/09/19 03:52:36;;;;;;;6.22;0.90;;;9.30;99.90;;;;;;6206362;28;20050;-84
2022/09/19 03:55:40;;;;;;;2.97;1.13;;;9.30;99.90;;;;;;6193854;28;20047;-84
2022/09/19 03:58:42;;;;;;;2.65;2.30;;;9.40;99.90;;;;;;6184804;28;20059;-85
2022/09/19 04:01:44;;;;;;;3.58;0.98;;;9.40;99.90;;;;;;6183838;28;20509;-84
2022/09/19 04:04:47;;;;;;;1.73;1.20;;;9.50;99.90;;;;;;6183932;28;20054;-84
2022/09/19 04:07:50;;;;;;;5.50;1.40;;;9.50;99.90;;;;;;6183690;28;20053;-83
2022/09/19 04:10:52;;;;;;;4.30;1.00;;;9.60;99.90;;;;;;6184091;28;20398;-84
2022/09/19 04:13:55;;;;;;;1.92;1.08;;;9.70;99.90;;;;;;6183926;28;20074;-84
2022/09/19 04:16:57;;;;;;;8.25;0.95;;;9.70;99.90;;;;;;6184096;28;20054;-84
2022/09/19 04:20:00;;;;;;;8.90;1.13;;;9.70;99.90;;;;;;6178659;28;20057;-83
2022/09/19 04:23:02;;;;;;;2.65;1.08;;;9.60;99.90;;;;;;6178412;28;20050;-83
2022/09/19 04:26:04;;;;;;;5.82;1.40;;;9.60;99.90;;;;;;6177285;28;20050;-83
2022/09/19 04:29:06;;;;;;;6.40;1.05;;;9.50;99.90;;;;;;6178519;28;20174;-85
2022/09/19 04:32:09;;;;;;;5.93;0.85;;;9.50;99.90;;;;;;6184956;28;20065;-85
2022/09/19 04:35:13;;;;;;;2.35;1.13;;;9.50;99.90;;;;;;6184183;28;20047;-84
2022/09/19 04:38:17;;;;;;;3.97;0.95;;;9.50;99.90;;;;;;6185096;28;20121;-84
2022/09/19 04:41:20;;;;;;;4.47;1.15;;;9.50;99.90;;;;;;6185708;28;20129;-84
2022/09/19 04:44:29;;;;;;;1.45;0.90;;;9.50;99.90;;;;;;6184840;28;20401;-84
2022/09/19 04:47:32;;;;;;;4.03;1.63;;;9.50;99.90;;;;;;6185763;28;20138;-84
2022/09/19 04:50:37;;;;;;;2.78;2.20;;;9.50;99.90;;;;;;6186069;28;20393;-84
2022/09/19 04:53:38;;;;;;;4.25;1.52;;;9.50;99.90;;;;;;6185340;28;20059;-83
2022/09/19 04:56:43;;;;;;;3.00;1.10;;;9.60;99.90;;;;;;6183241;28;20046;-83
2022/09/19 04:59:45;;;;;;;6.57;1.60;;;9.60;99.90;;;;;;6184348;28;20043;-83
2022/09/19 05:02:49;;;;;;;4.55;1.23;;;9.60;99.90;;;;;;6183965;28;20055;-84
2022/09/19 05:05:53;;;;;;;4.05;1.15;;;9.60;99.90;;;;;;6182395;28;20039;-83
2022/09/19 05:08:54;;;;;;;4.50;1.63;;;9.70;99.90;;;;;;6178199;28;20054;-83
2022/09/19 05:11:56;;;;;;;3.88;0.90;;;9.80;99.90;;;;;;6178507;28;20047;-83
2022/09/19 05:14:58;;;;;;;3.95;1.60;;;9.90;99.90;;;;;;6178966;28;20489;-83
2022/09/19 05:18:00;;;;;;;2.17;1.10;;;10.10;99.90;;;;;;6180836;28;20050;-82
2022/09/19 05:21:06;;;;;;;1.75;1.13;;;10.10;99.90;;;;;;6182919;28;20053;-82
2022/09/19 05:24:08;;;;;;;5.30;1.33;;;10.30;99.90;;;;;;6182525;28;20062;-82
2022/09/19 05:27:09;;;;;;;4.18;1.38;;;10.30;99.90;;;;;;6182951;28;20054;-82
2022/09/19 05:30:13;;;;;;;2.72;1.13;;;10.40;99.90;;;;;;6182427;28;20054;-82
2022/09/19 05:33:18;;;;;;;7.82;1.42;;;10.50;99.90;;;;;;6181874;28;20046;-82
2022/09/19 05:36:21;;;;;;;4.30;0.80;;;10.70;99.90;;;;;;6179641;28;20043;-84
2022/09/19 05:39:23;;;;;;;8.85;1.23;;;10.70;99.90;;;;;;6179979;28;20046;-83
2022/09/19 05:42:25;;;;;;;6.07;2.17;;;10.80;99.90;;;;;;6179797;28;20054;-83
2022/09/19 05:45:28;;;;;;;1.60;0.98;;;10.80;99.90;;;;;;6180216;28;20070;-83
2022/09/19 05:48:30;;;;;;;6.20;0.95;;;10.80;99.90;;;;;;6181101;28;20050;-84
2022/09/19 05:51:33;;;;;;;3.78;0.80;;;10.90;99.90;;;;;;6180722;28;20124;-83
2022/09/19 05:54:34;;;;;;;6.00;2.03;;;11.00;99.90;;;;;;6181619;28;20046;-83
2022/09/19 05:57:35;;;;;;;5.60;0.98;;;11.10;99.90;;;;;;6183147;28;20058;-84
2022/09/19 06:00:38;;;;;;;5.90;0.70;;;11.20;99.90;;;;;;6183373;28;20050;-84
2022/09/19 06:03:40;;;;;;;4.00;0.80;;;11.30;99.90;;;;;;6184014;28;20051;-84
2022/09/19 06:06:43;;;;;;;12.13;1.95;;;11.30;99.90;;;;;;6184082;28;20058;-84
2022/09/19 06:09:45;;;;;;;4.28;0.80;;;11.40;99.90;;;;;;6182184;28;20042;-84
2022/09/19 06:12:47;;;;;;;3.30;0.90;;;11.50;99.90;;;;;;6183175;28;20053;-83
2022/09/19 06:15:49;;;;;;;8.35;0.95;;;11.50;99.90;;;;;;6180634;28;20050;-82
2022/09/19 06:18:51;;;;;;;0.85;0.45;;;11.60;99.90;;;;;;6177950;28;20054;-82
2022/09/19 06:21:54;;;;;;;1.95;0.65;;;11.70;99.90;;;;;;6177388;28;20055;-83
2022/09/19 06:24:56;;;;;;;1.50;0.60;;;11.80;99.90;;;;;;6176495;28;20058;-82
2022/09/19 06:28:00;;;;;;;2.40;0.85;;;11.90;99.90;;;;;;6177013;28;20050;-82
2022/09/19 06:31:03;;;;;;;2.75;0.73;;;12.00;99.90;;;;;;6178797;28;20054;-83
2022/09/19 06:34:05;;;;;;;3.70;1.00;;;12.00;99.90;;;;;;6152546;28;20107;-84
2022/09/19 06:37:09;;;;;;;4.75;0.68;;;12.20;99.90;;;;;;6235455;28;20061;-83
2022/09/19 06:40:11;;;;;;;1.65;0.63;;;12.30;99.90;;;;;;6229723;28;20062;-83
2022/09/19 06:43:13;;;;;;;1.63;0.77;;;12.40;99.90;;;;;;6224010;28;20053;-82
2022/09/19 06:46:15;;;;;;;2.67;0.50;;;12.50;99.90;;;;;;6224494;28;20050;-83
2022/09/19 06:49:16;;;;;;;9.10;0.82;;;12.60;99.90;;;;;;6224957;28;20066;-82
2022/09/19 06:52:19;;;;;;;2.38;0.60;;;12.70;99.90;;;;;;6224049;28;20425;-84
2022/09/19 06:55:23;;;;;;;1.90;0.75;;;12.80;99.90;;;;;;6224255;28;20060;-83
2022/09/19 06:58:26;;;;;;;4.53;1.10;;;12.90;99.90;;;;;;6191706;28;20047;-83
2022/09/19 07:01:28;;;;;;;4.07;0.85;;;13.20;99.90;;;;;;6175540;28;20046;-82
2022/09/19 07:04:29;;;;;;;7.60;1.27;;;13.40;99.90;;;;;;6199093;28;20054;-84
2022/09/19 07:07:33;;;;;;;4.32;0.70;;;13.60;99.90;;;;;;6225058;28;20042;-84
2022/09/19 07:10:36;;;;;;;4.57;0.77;;;13.60;99.90;;;;;;6226804;28;20231;-83
2022/09/19 07:13:38;;;;;;;6.93;1.00;;;13.70;99.90;;;;;;6225899;28;20042;-82
2022/09/19 07:16:40;;;;;;;1.00;0.55;;;13.80;99.90;;;;;;6227141;28;20049;-82
2022/09/19 07:19:41;;;;;;;1.83;0.52;;;13.80;99.90;;;;;;6225628;28;20507;-82
2022/09/19 07:22:44;;;;;;;5.13;0.90;;;13.70;99.90;;;;;;6227096;28;20049;-82
2022/09/19 07:25:48;;;;;;;2.20;0.50;;;13.70;99.90;;;;;;6227413;28;20045;-83
2022/09/19 07:28:50;;;;;;;8.70;0.90;;;13.70;99.90;;;;;;6230868;28;20561;-82
2022/09/19 07:31:51;;;;;;;3.88;0.77;;;13.80;99.90;;;;;;6231170;28;20064;-82
2022/09/19 07:34:53;;;;;;;6.80;0.55;;;13.80;99.90;;;;;;6220864;28;20050;-83
2022/09/19 07:37:56;;;;;;;1.73;0.68;;;13.90;99.90;;;;;;6230246;28;20046;-82
2022/09/19 07:41:00;;;;;;;8.02;1.13;;;13.90;99.90;;;;;;6231687;28;20526;-82
2022/09/19 07:44:02;;;;;;;6.63;1.05;;;13.90;99.90;;;;;;6231130;28;20511;-82
2022/09/19 07:50:23;;;;;;;2.30;0.55;;;14.30;99.90;;;;;;6231067;28;20049;-81
2022/09/19 07:53:26;;;;;;;4.45;0.70;;;14.50;99.90;;;;;;6229951;28;20057;-82
2022/09/19 07:56:29;;;;;;;2.15;0.55;;;14.60;99.90;;;;;;6229772;28;20042;-81
2022/09/19 07:59:30;;;;;;;4.55;0.50;;;14.50;99.90;;;;;;6195617;28;20065;-83
2022/09/19 08:02:32;;;;;;;1.52;0.43;;;14.60;99.90;;;;;;6188857;28;20077;-83
2022/09/19 08:05:37;;;;;;;5.43;0.75;;;14.70;99.90;;;;;;6224438;28;20049;-82
2022/09/19 08:08:40;;;;;;;1.67;0.60;;;14.70;99.90;;;;;;6232243;28;20488;-82
2022/09/19 08:11:42;;;;;;;1.05;0.47;;;14.70;99.90;;;;;;6232290;28;20105;-82
2022/09/19 08:14:43;;;;;;;3.88;0.95;;;14.90;99.90;;;;;;6233382;28;20050;-83
2022/09/19 08:17:55;;;;;;;6.50;0.50;;;15.00;99.70;;;;;;6231720;28;20037;-82
2022/09/19 08:20:57;;;;;;;4.15;0.65;;;15.30;99.20;;;;;;6232359;28;20046;-82
2022/09/19 08:24:00;;;;;;;4.78;0.50;;;15.50;98.70;;;;;;6231657;28;20338;-83
2022/09/19 08:27:02;;;;;;;4.95;0.68;;;15.70;98.60;;;;;;6230844;28;20046;-82
2022/09/19 08:30:06;;;;;;;3.45;0.70;;;15.90;98.00;;;;;;6230737;28;20041;-82
2022/09/19 08:33:08;;;;;;;2.95;0.50;;;16.00;98.20;;;;;;6227599;28;20542;-83
2022/09/19 08:36:10;;;;;;;4.63;0.90;;;16.10;98.10;;;;;;6220956;28;20049;-82
2022/09/19 08:39:13;;;;;;;6.70;0.50;;;16.20;97.70;;;;;;6229347;28;20053;-82
2022/09/19 08:42:27;;;;;;;4.50;1.05;;;16.30;97.60;;;;;;6216927;28;20054;-82
2022/09/19 08:45:46;;;;;;;10.70;1.13;;;16.30;96.60;;;;;;6206765;28;20065;-81
2022/09/19 08:48:57;;;;;;;7.15;1.02;;;16.10;96.50;;;;;;6207413;28;20054;-81
2022/09/19 08:52:02;;;;;;;7.18;0.98;;;16.00;96.70;;;;;;6207241;28;20050;-82
2022/09/19 08:55:08;;;;;;;4.95;0.80;;;16.20;96.60;;;;;;6206650;28;20057;-82
2022/09/19 08:58:17;;;;;;;6.05;0.90;;;16.30;96.30;;;;;;6201112;28;20039;-83
2022/09/19 09:01:21;;;;;;;4.70;0.60;;;16.30;95.80;;;;;;6179591;28;20053;-83
2022/09/19 09:04:27;;;;;;;7.88;1.67;;;16.50;95.90;;;;;;6200813;28;20424;-82
2022/09/19 09:07:40;;;;;;;9.27;1.98;;;16.60;95.30;;;;;;6227500;28;20052;-83
2022/09/19 09:10:53;;;;;;;3.92;0.68;;;16.90;95.30;;;;;;6229509;28;20050;-83
2022/09/19 09:14:02;;;;;;;4.65;0.68;;;17.10;94.50;;;;;;6228343;28;20045;-83
2022/09/19 09:17:16;;;;;;;4.75;0.70;;;17.30;94.20;;;;;;6228515;28;20566;-83
2022/09/19 09:20:36;;;;;;;2.22;0.75;;;17.70;93.40;;;;;;6228590;28;20045;-83
2022/09/19 09:23:42;;;;;;;7.20;0.70;;;17.90;92.70;;;;;;6230684;28;20037;-83
2022/09/19 09:26:49;;;;;;;3.17;1.00;;;18.10;92.20;;;;;;6231825;28;20046;-83
2022/09/19 09:29:54;;;;;;;7.03;1.17;;;17.80;92.30;;;;;;6231009;28;20058;-83
2022/09/19 09:33:06;;;;;;;2.58;1.58;;;17.70;92.70;;;;;;6231789;28;20046;-82
2022/09/19 09:36:15;;;;;;;4.28;1.45;;;17.70;92.40;;;;;;6231158;28;20050;-83
2022/09/19 09:39:22;;;;;;;4.55;1.42;;;18.20;92.10;;;;;;6231922;28;20057;-82
2022/09/19 09:42:32;;;;;;;9.15;1.08;;;18.70;91.30;;;;;;6232323;28;20061;-82
2022/09/19 09:45:42;;;;;;;2.60;0.57;;;19.30;90.40;;;;;;6232016;28;20050;-82
2022/09/19 09:48:44;;;;;;;5.88;1.02;;;19.40;87.20;;;;;;6236512;28;20514;-82
2022/09/19 09:51:57;;;;;;;3.45;0.77;;;19.30;87.20;;;;;;6228668;28;20056;-83
2022/09/19 09:58:44;;;;;;;1.40;0.50;;;19.20;85.70;;;;;;6228348;28;20077;-82
2022/09/19 10:05:16;;;;;;;4.63;0.73;;;19.10;86.50;;;;;;6229127;28;20045;-83
2022/09/19 10:08:22;;;;;;;10.93;1.50;;;19.10;85.00;;;;;;6228547;28;20045;-83
2022/09/19 10:11:32;;;;;;;5.63;0.43;;;18.80;86.00;;;;;;6228801;28;20476;-83
2022/09/19 10:14:39;;;;;;;6.35;0.80;;;18.80;86.80;;;;;;6230360;28;20053;-83
2022/09/19 10:17:47;;;;;;;6.75;0.60;;;18.70;86.80;;;;;;6228218;28;20045;-82
2022/09/19 10:20:51;;;;;;;3.13;0.63;;;18.80;85.60;;;;;;6230673;28;20515;-83
2022/09/19 10:23:53;;;;;;;3.95;0.65;;;18.90;86.00;;;;;;6228476;28;20046;-82
2022/09/19 10:27:00;;;;;;;6.35;0.90;;;19.00;84.90;;;;;;6228808;28;20041;-82
2022/09/19 10:30:15;;;;;;;3.40;0.57;;;19.00;85.40;;;;;;6228371;28;20053;-82
2022/09/19 10:33:28;;;;;;;5.13;1.13;;;19.00;85.40;;;;;;6228213;28;20052;-83
2022/09/19 10:36:32;;;;;;;5.25;1.38;;;18.90;84.70;;;;;;6228686;28;20121;-82
2022/09/19 10:39:44;;;;;;;5.95;0.88;;;18.90;84.60;;;;;;6266963;22;20591;-85
2022/09/19 10:42:47;;;;;;;2.47;1.15;;;18.70;85.30;;;;;;6258591;28;20103;-85
2022/09/19 10:45:51;;;;;;;5.47;0.70;;;18.80;85.20;;;;;;6258131;28;20149;-85
2022/09/19 10:48:56;;;;;;;2.97;0.63;;;19.10;84.70;;;;;;6258261;28;20312;-85
2022/09/19 10:51:59;;;;;;;1.60;0.68;;;19.30;83.90;;;;;;6257978;28;20037;-85
2022/09/19 10:55:06;;;;;;;5.90;0.60;;;19.60;84.00;;;;;;6257768;28;20049;-85
2022/09/19 10:58:16;;;;;;;4.65;0.90;;;19.90;81.60;;;;;;6257001;28;20049;-85
2022/09/19 11:01:24;;;;;;;6.43;0.60;;;20.00;80.90;;;;;;6257451;28;20042;-85
2022/09/19 11:04:26;;;;;;;5.00;2.83;;;20.20;80.80;;;;;;6259121;28;20049;-85
2022/09/19 11:07:30;;;;;;;4.13;0.80;;;20.20;80.30;;;;;;6249956;28;20077;-85
2022/09/19 11:10:37;;;;;;;4.35;0.75;;;20.10;79.10;;;;;;6256297;28;20053;-83
2022/09/19 11:13:44;;;;;;;3.50;0.70;;;20.10;80.50;;;;;;6255579;28;20075;-85
2022/09/19 11:17:29;;;;;;;6.85;1.85;;;20.40;79.70;;;;;;6257792;28;20045;-86
2022/09/19 11:20:50;;;;;;;5.97;1.38;;;21.00;77.10;;;;;;6237497;28;20091;-85
2022/09/19 11:24:08;;;;;;;4.50;0.95;;;21.00;76.00;;;;;;6251375;28;20046;-84
2022/09/19 11:27:22;;;;;;;;;;;20.80;76.30;;;;;;6230729;28;20046;-84
2022/09/19 11:30:26;;;;;;;3.00;0.70;;;20.70;78.30;;;;;;6231652;28;19922;-84
2022/09/19 11:33:43;;;;;;;6.20;0.63;;;20.40;77.70;;;;;;6230539;28;20064;-85
2022/09/19 11:36:58;;;;;;;4.60;1.05;;;20.30;78.20;;;;;;6229650;28;20462;-84
2022/09/19 11:40:12;;;;;;;12.05;1.10;;;20.10;77.10;;;;;;6230163;28;20046;-85
2022/09/19 11:43:29;;;;;;;1.70;0.28;;;20.20;78.30;;;;;;6230726;28;20064;-82
2022/09/19 11:46:41;;;;;;;3.67;0.60;;;20.30;77.20;;;;;;6235358;28;20072;-84
2022/09/19 11:50:04;;;;;;;4.28;0.70;;;20.50;76.50;;;;;;6250703;28;20407;-84
2022/09/19 11:53:21;;;;;;;7.78;1.70;;;20.90;75.20;;;;;;6253506;28;20049;-82
2022/09/19 11:56:55;;;;;;;5.97;0.93;;;21.40;74.00;;;;;;6252988;28;20045;-82
2022/09/19 12:00:05;;;;;;;4.05;1.00;;;21.60;72.50;;;;;;6251557;28;20064;-83
2022/09/19 12:03:29;;;;;;;3.72;0.73;;;21.50;72.70;;;;;;6254910;28;20487;-83
2022/09/19 12:06:59;;;;;;;3.75;0.40;;;21.40;71.50;;;;;;6255581;28;20061;-84
2022/09/19 12:10:12;;;;;;;4.50;1.35;;;21.50;70.80;;;;;;6254503;28;20053;-83
2022/09/19 12:13:20;;;;;;;3.03;0.63;;;21.90;71.60;;;;;;6256914;28;20046;-83
2022/09/19 12:16:26;;;;;;;4.25;1.30;;;22.30;68.70;;;;;;6259092;28;20132;-84
2022/09/19 12:19:35;;;;;;;4.30;1.10;;;22.60;69.00;;;;;;6258026;28;20480;-83
2022/09/19 12:22:40;;;;;;;3.97;0.98;;;23.10;67.20;;;;;;6257715;28;20053;-83
2022/09/19 12:25:42;;;;;;;9.27;1.00;;;23.50;66.50;;;;;;6257271;28;20060;-83
2022/09/19 12:28:50;;;;;;;3.28;1.08;;;23.70;64.10;;;;;;6256927;28;20054;-83
2022/09/19 12:31:56;;;;;;;3.80;0.55;;;23.60;63.40;;;;;;6255840;28;20072;-83
2022/09/19 12:35:05;;;;;;;0.97;0.20;;;23.60;62.70;;;;;;6254251;28;20049;-83
2022/09/19 12:38:20;;;;;;;6.25;1.00;;;23.20;64.50;;;;;;6254907;28;20426;-82
2022/09/19 12:41:30;;;;;;;1.50;0.70;;;23.20;65.00;;;;;;6253634;28;20041;-83
2022/09/19 12:44:37;;;;;;;4.35;0.73;;;23.10;65.10;;;;;;6253310;28;20052;-82
2022/09/19 12:47:54;;;;;;;3.42;1.42;;;23.30;64.00;;;;;;6253524;28;20052;-82
2022/09/19 12:50:58;;;;;;;7.30;0.80;;;23.40;62.50;;;;;;6270331;28;20109;-82
2022/09/19 12:54:05;;;;;;;2.88;1.02;;;23.50;63.20;;;;;;6273424;28;20240;-83
2022/09/19 12:57:16;;;;;;;2.03;0.40;;;23.60;62.20;;;;;;6260931;28;20048;-84
2022/09/19 13:00:20;;;;;;;3.10;0.60;;;23.60;63.20;;;;;;6263232;28;20045;-84
2022/09/19 13:03:27;;;;;;;7.20;0.85;;;23.50;63.40;;;;;;6262217;28;20103;-84
2022/09/19 13:06:42;;;;;;;6.50;1.02;;;23.40;63.80;;;;;;6260611;28;20065;-84
2022/09/19 13:09:54;;;;;;;2.08;1.20;;;23.20;64.20;;;;;;6259964;28;20045;-84
2022/09/19 13:13:03;;;;;;;3.22;0.90;;;22.90;62.40;;;;;;6236995;28;20479;-83
2022/09/19 13:16:08;;;;;;;2.78;0.70;;;22.80;63.40;;;;;;6236347;28;20423;-83
2022/09/19 13:26:17;;;;;;;4.50;0.75;;;23.40;63.50;;;;;;6257943;28;20128;-84
2022/09/19 13:29:45;;;;;;;7.10;0.73;;;23.60;62.40;;;;;;6257133;28;20052;-83
2022/09/19 13:32:57;;;;;;;4.03;1.35;;;23.90;61.10;;;;;;6256846;28;20048;-82
2022/09/19 13:36:08;;;;;;;2.08;0.55;;;24.10;64.30;;;;;;6257034;28;20111;-82
2022/09/19 13:39:47;;;;;;;5.38;0.68;;;24.40;66.90;;;;;;6252372;28;20049;-83
2022/09/19 13:42:53;;;;;;;6.90;0.60;;;24.80;61.30;;;;;;6258005;28;20049;-84
2022/09/19 13:46:03;;;;;;;2.25;0.43;;;25.10;57.70;;;;;;6254334;28;20050;-83
2022/09/19 13:49:15;;;;;;;6.10;0.60;;;25.10;56.70;;;;;;6255077;28;20057;-83
2022/09/19 13:52:23;;;;;;;3.08;0.50;;;24.70;56.80;;;;;;6253863;28;20049;-82
2022/09/19 13:55:32;;;;;;;6.25;0.52;;;24.30;57.90;;;;;;6253699;28;20060;-81
2022/09/19 13:58:38;;;;;;;5.55;0.68;;;24.20;58.80;;;;;;6255039;28;20088;-81
2022/09/19 14:01:53;;;;;;;3.30;0.55;;;24.20;58.20;;;;;;6253842;28;20045;-80
2022/09/19 14:05:05;;;;;;;4.68;0.52;;;24.30;58.30;;;;;;6254461;28;20049;-81
2022/09/19 14:08:21;;;;;;;1.98;0.57;;;24.50;58.50;;;;;;6253474;28;20048;-80
2022/09/19 14:11:30;;;;;;;4.32;0.70;;;24.60;56.90;;;;;;6253764;28;20045;-80
2022/09/19 14:14:54;;;;;;;2.53;0.28;;;24.90;57.00;;;;;;6236076;28;20129;-80
2022/09/19 14:18:44;;;;;;;4.68;0.70;;;25.20;54.40;;;;;;6238198;28;20048;-80
2022/09/19 14:21:57;;;;;;;4.63;0.57;;;25.30;54.40;;;;;;6229567;28;20042;-81
2022/09/19 14:25:05;;;;;;;3.95;0.40;;;25.30;53.80;;;;;;6229844;28;20525;-80
2022/09/19 14:28:39;;;;;;;4.38;0.50;;;25.30;54.80;;;;;;6229459;28;20049;-81
2022/09/19 14:31:54;;;;;;;3.38;0.40;;;25.40;55.50;;;;;;6229653;28;20046;-81
2022/09/19 14:35:34;;;;;;;1.50;0.40;;;25.40;54.50;;;;;;6229419;28;20050;-81
2022/09/19 14:38:56;;;;;;;3.85;0.75;;;25.40;54.10;;;;;;6229295;28;20085;-81
2022/09/19 14:42:09;;;;;;;3.08;0.40;;;25.10;53.80;;;;;;6228823;28;20054;-81
2022/09/19 14:45:28;;;;;;;3.67;0.60;;;24.80;54.10;;;;;;6229619;28;20065;-81
2022/09/19 14:48:35;;;;;;;1.67;0.30;;;24.50;54.50;;;;;;6251948;28;20458;-81
2022/09/19 14:51:42;;;;;;;3.03;0.55;;;24.10;55.40;;;;;;6253401;28;20045;-81
2022/09/19 14:54:50;;;;;;;2.92;0.57;;;23.80;55.60;;;;;;6255136;28;20054;-81
2022/09/19 14:57:53;;;;;;;4.38;0.65;;;23.40;55.80;;;;;;6254602;28;20525;-81
2022/09/19 15:01:04;;;;;;;6.88;0.70;;;23.00;56.10;;;;;;6254138;28;20099;-81
2022/09/19 15:04:13;;;;;;;2.78;0.43;;;22.60;56.90;;;;;;6254200;28;20041;-81
2022/09/19 15:07:16;;;;;;;4.93;0.40;;;22.30;58.40;;;;;;6254359;28;20060;-80
2022/09/19 15:10:37;;;;;;;4.70;0.68;;;22.00;58.50;;;;;;6254227;28;20045;-80
2022/09/19 15:13:45;;;;;;;3.60;1.23;;;21.60;59.50;;;;;;6241533;28;20503;-81
2022/09/19 15:16:50;;;;;;;6.68;0.75;;;21.20;60.30;;;;;;6257522;28;20049;-81
2022/09/19 15:19:56;;;;;;;1.90;0.40;;;20.90;61.10;;;;;;6255089;28;20041;-82
2022/09/19 15:23:02;;;;;;;8.95;0.70;;;20.60;61.40;;;;;;6255125;28;20053;-81
2022/09/19 15:26:06;;;;;;;2.60;0.50;;;20.30;61.10;;;;;;6255337;28;20049;-80
2022/09/19 15:29:23;;;;;;;5.05;1.48;;;20.10;61.80;;;;;;6253702;28;20119;-80
2022/09/19 15:32:33;;;;;;;6.22;1.30;;;20.00;62.80;;;;;;6253584;28;20125;-80
2022/09/19 15:35:35;;;;;;;3.75;0.73;;;19.90;62.70;;;;;;6253368;28;20045;-79
2022/09/19 15:38:39;;;;;;;3.00;0.30;;;19.70;62.50;;;;;;6254039;28;20046;-80
2022/09/19 15:41:42;;;;;;;1.42;0.50;;;19.40;62.80;;;;;;6254338;28;20049;-80
2022/09/19 15:44:45;;;;;;;1.85;0.52;;;19.20;63.60;;;;;;6253947;28;20052;-81
2022/09/19 15:47:47;;;;;;;0.45;0.30;;;18.90;63.90;;;;;;6256037;28;20041;-81
2022/09/19 15:50:51;;;;;;;5.93;0.43;;;18.70;63.90;;;;;;6260699;28;20052;-80
2022/09/19 15:53:55;;;;;;;2.25;0.40;;;18.60;64.50;;;;;;6259593;28;20041;-81
2022/09/19 15:56:58;;;;;;;230.27;162.82;;;18.60;65.20;;;;;;6259842;28;20049;-80
2022/09/19 16:00:04;;;;;;;259.08;119.50;;;18.60;65.70;;;;;;6271101;28;20048;-81
2022/09/19 16:03:07;;;;;;;7.03;4.25;;;18.40;66.30;;;;;;6257112;28;20411;-79
2022/09/19 16:09:48;;;;;;;1.70;0.77;;;18.30;68.00;;;;;;6257812;28;20053;-81
2022/09/19 16:12:51;;;;;;;1.65;0.57;;;18.30;68.60;;;;;;6259139;28;20111;-79
2022/09/19 16:15:53;;;;;;;1.63;0.43;;;18.40;69.70;;;;;;6257426;28;20057;-79
2022/09/19 16:18:55;;;;;;;2.00;0.30;;;18.60;69.40;;;;;;6269933;28;20041;-79
2022/09/19 16:22:05;;;;;;;4.18;0.28;;;18.60;69.50;;;;;;6262994;28;20113;-82
2022/09/19 16:25:14;;;;;;;7.50;2.67;;;18.80;69.30;;;;;;6253277;28;20041;-81
2022/09/19 16:28:18;;;;;;;2.92;0.35;;;18.70;70.00;;;;;;6257804;28;20050;-81
2022/09/19 16:31:24;;;;;;;10.00;1.02;;;18.70;69.90;;;;;;6258186;28;20049;-84
2022/09/19 16:34:32;;;;;;;6.25;1.10;;;18.60;70.30;;;;;;6261244;28;20108;-81
2022/09/19 16:37:38;;;;;;;3.63;0.98;;;18.40;70.40;;;;;;6265976;28;20068;-82
2022/09/19 16:40:55;;;;;;;1.98;0.50;;;18.20;71.10;;;;;;6279544;22;20064;-83
2022/09/19 16:43:59;;;;;;;3.85;0.65;;;18.20;72.90;;;;;;6252871;28;20045;-84